Terminal Aerodrome Forecast
Issued by NWS

Home | Current Version | Previous Version | Text Only | Print | Product List | Glossary On
Versions: 1 2 3 4 5 6 7 8
000
FTUS46 KHNX 270537
TAFMER
TAF
KMER 270537Z 2706/2806 00000KT P6SM FEW250
     FM271000 VRB03KT 4SM HZ SCT100 SCT200
     FM271500 VRB03KT P6SM SCT050 BKN100
     FM271800 32008KT P6SM BKN050
     FM280000 28012KT P6SM BKN050 PROB30 2800/2806 P6SM -RA OVC040=

USA.gov is the U.S. government's official web portal to all federal, state and local government web resources and services.